sensor_id;sensor_type;location;lat;lon;timestamp;P1;durP1;ratioP1;P2;durP2;ratioP2
70455;SDS011;57916;51.996;5.180;2023-09-12T00:01:20;51.15;;;25.38;;
70455;SDS011;57916;51.996;5.180;2023-09-12T00:03:47;54.70;;;25.20;;
70455;SDS011;57916;51.996;5.180;2023-09-12T00:06:14;54.80;;;25.45;;
70455;SDS011;57916;51.996;5.180;2023-09-12T00:08:42;51.53;;;24.52;;
70455;SDS011;57916;51.996;5.180;2023-09-12T00:11:09;52.78;;;25.75;;
70455;SDS011;57916;51.996;5.180;2023-09-12T00:13:38;53.22;;;26.60;;
70455;SDS011;57916;51.996;5.180;2023-09-12T00:16:06;51.65;;;25.00;;
70455;SDS011;57916;51.996;5.180;2023-09-12T00:18:39;52.67;;;24.92;;
70455;SDS011;57916;51.996;5.180;2023-09-12T00:21:07;48.55;;;24.05;;
70455;SDS011;57916;51.996;5.180;2023-09-12T00:23:34;47.45;;;25.02;;
70455;SDS011;57916;51.996;5.180;2023-09-12T00:26:02;52.30;;;27.05;;
70455;SDS011;57916;51.996;5.180;2023-09-12T00:28:28;50.40;;;25.35;;
70455;SDS011;57916;51.996;5.180;2023-09-12T00:30:55;46.63;;;23.93;;
70455;SDS011;57916;51.996;5.180;2023-09-12T00:33:22;37.58;;;19.60;;
70455;SDS011;57916;51.996;5.180;2023-09-12T00:35:51;25.13;;;14.40;;
70455;SDS011;57916;51.996;5.180;2023-09-12T00:38:18;16.70;;;12.13;;
70455;SDS011;57916;51.996;5.180;2023-09-12T00:40:45;28.77;;;12.33;;
70455;SDS011;57916;51.996;5.180;2023-09-12T00:43:12;23.83;;;14.38;;
70455;SDS011;57916;51.996;5.180;2023-09-12T00:45:38;36.83;;;19.60;;
70455;SDS011;57916;51.996;5.180;2023-09-12T00:48:07;39.55;;;22.02;;
70455;SDS011;57916;51.996;5.180;2023-09-12T00:50:36;36.88;;;21.27;;
70455;SDS011;57916;51.996;5.180;2023-09-12T00:53:04;41.55;;;20.60;;
70455;SDS011;57916;51.996;5.180;2023-09-12T00:55:32;40.40;;;22.25;;
70455;SDS011;57916;51.996;5.180;2023-09-12T00:58:02;46.35;;;23.25;;
70455;SDS011;57916;51.996;5.180;2023-09-12T01:00:29;37.97;;;22.50;;
70455;SDS011;57916;51.996;5.180;2023-09-12T01:02:57;40.03;;;20.90;;
70455;SDS011;57916;51.996;5.180;2023-09-12T01:05:25;37.85;;;20.95;;
70455;SDS011;57916;51.996;5.180;2023-09-12T01:07:53;37.92;;;19.75;;
70455;SDS011;57916;51.996;5.180;2023-09-12T01:10:20;36.13;;;20.35;;
70455;SDS011;57916;51.996;5.180;2023-09-12T01:12:47;34.03;;;18.93;;
70455;SDS011;57916;51.996;5.180;2023-09-12T01:15:14;33.03;;;15.95;;
70455;SDS011;57916;51.996;5.180;2023-09-12T01:17:42;47.47;;;17.95;;
70455;SDS011;57916;51.996;5.180;2023-09-12T01:20:31;86.57;;;15.68;;
70455;SDS011;57916;51.996;5.180;2023-09-12T01:26:01;155.33;;;13.80;;
70455;SDS011;57916;51.996;5.180;2023-09-12T01:28:41;120.47;;;15.38;;
70455;SDS011;57916;51.996;5.180;2023-09-12T01:31:12;67.18;;;18.17;;
70455;SDS011;57916;51.996;5.180;2023-09-12T01:33:39;33.17;;;18.30;;
70455;SDS011;57916;51.996;5.180;2023-09-12T01:36:08;33.15;;;18.23;;
70455;SDS011;57916;51.996;5.180;2023-09-12T01:38:36;30.33;;;17.63;;
70455;SDS011;57916;51.996;5.180;2023-09-12T01:41:03;97.25;;;17.27;;
70455;SDS011;57916;51.996;5.180;2023-09-12T01:43:31;32.17;;;17.55;;
70455;SDS011;57916;51.996;5.180;2023-09-12T01:45:59;29.53;;;16.20;;
70455;SDS011;57916;51.996;5.180;2023-09-12T01:48:29;64.38;;;18.83;;
70455;SDS011;57916;51.996;5.180;2023-09-12T01:51:00;103.30;;;19.33;;
70455;SDS011;57916;51.996;5.180;2023-09-12T01:53:28;102.90;;;19.88;;
70455;SDS011;57916;51.996;5.180;2023-09-12T01:55:56;79.55;;;20.10;;
70455;SDS011;57916;51.996;5.180;2023-09-12T01:58:26;12.82;;;9.00;;
70455;SDS011;57916;51.996;5.180;2023-09-12T02:00:53;9.30;;;8.02;;
70455;SDS011;57916;51.996;5.180;2023-09-12T02:03:21;16.60;;;10.43;;
70455;SDS011;57916;51.996;5.180;2023-09-12T02:05:48;18.83;;;12.10;;
70455;SDS011;57916;51.996;5.180;2023-09-12T02:08:15;16.38;;;11.55;;
70455;SDS011;57916;51.996;5.180;2023-09-12T02:10:42;33.30;;;16.60;;
70455;SDS011;57916;51.996;5.180;2023-09-12T02:13:09;77.68;;;22.15;;
70455;SDS011;57916;51.996;5.180;2023-09-12T02:15:36;169.88;;;22.05;;
70455;SDS011;57916;51.996;5.180;2023-09-12T02:18:03;260.98;;;22.17;;
70455;SDS011;57916;51.996;5.180;2023-09-12T02:20:31;320.80;;;21.25;;
70455;SDS011;57916;51.996;5.180;2023-09-12T02:22:58;247.95;;;21.02;;
70455;SDS011;57916;51.996;5.180;2023-09-12T02:25:25;478.00;;;23.90;;
70455;SDS011;57916;51.996;5.180;2023-09-12T02:27:52;257.60;;;20.38;;
70455;SDS011;57916;51.996;5.180;2023-09-12T02:30:19;268.27;;;19.50;;
70455;SDS011;57916;51.996;5.180;2023-09-12T02:32:46;322.92;;;17.50;;
70455;SDS011;57916;51.996;5.180;2023-09-12T02:35:13;240.90;;;17.25;;
70455;SDS011;57916;51.996;5.180;2023-09-12T02:37:40;269.77;;;20.88;;
70455;SDS011;57916;51.996;5.180;2023-09-12T02:40:07;292.42;;;20.25;;
70455;SDS011;57916;51.996;5.180;2023-09-12T02:42:38;150.88;;;17.80;;
70455;SDS011;57916;51.996;5.180;2023-09-12T02:45:05;117.72;;;15.52;;
70455;SDS011;57916;51.996;5.180;2023-09-12T02:47:32;65.57;;;14.35;;
70455;SDS011;57916;51.996;5.180;2023-09-12T02:49:59;38.78;;;14.77;;
70455;SDS011;57916;51.996;5.180;2023-09-12T02:52:26;83.07;;;15.63;;
70455;SDS011;57916;51.996;5.180;2023-09-12T02:54:53;123.93;;;21.45;;
70455;SDS011;57916;51.996;5.180;2023-09-12T02:57:20;212.20;;;22.02;;
70455;SDS011;57916;51.996;5.180;2023-09-12T02:59:48;85.72;;;20.95;;
70455;SDS011;57916;51.996;5.180;2023-09-12T03:02:14;229.27;;;21.63;;
70455;SDS011;57916;51.996;5.180;2023-09-12T03:04:42;344.77;;;21.48;;
70455;SDS011;57916;51.996;5.180;2023-09-12T03:07:09;324.33;;;19.15;;
70455;SDS011;57916;51.996;5.180;2023-09-12T03:09:36;157.57;;;17.17;;
70455;SDS011;57916;51.996;5.180;2023-09-12T03:12:04;201.18;;;18.48;;
70455;SDS011;57916;51.996;5.180;2023-09-12T03:14:32;116.38;;;15.65;;
70455;SDS011;57916;51.996;5.180;2023-09-12T03:17:00;122.30;;;17.17;;
70455;SDS011;57916;51.996;5.180;2023-09-12T03:19:27;83.47;;;16.67;;
70455;SDS011;57916;51.996;5.180;2023-09-12T03:21:56;182.07;;;16.10;;
70455;SDS011;57916;51.996;5.180;2023-09-12T03:24:23;321.17;;;18.70;;
70455;SDS011;57916;51.996;5.180;2023-09-12T03:26:51;190.18;;;17.92;;
70455;SDS011;57916;51.996;5.180;2023-09-12T03:29:18;144.88;;;17.67;;
70455;SDS011;57916;51.996;5.180;2023-09-12T03:31:46;159.30;;;17.33;;
70455;SDS011;57916;51.996;5.180;2023-09-12T03:34:13;188.95;;;18.25;;
70455;SDS011;57916;51.996;5.180;2023-09-12T03:36:40;263.23;;;17.55;;
70455;SDS011;57916;51.996;5.180;2023-09-12T03:39:07;195.70;;;18.30;;
70455;SDS011;57916;51.996;5.180;2023-09-12T03:41:35;74.35;;;16.63;;
70455;SDS011;57916;51.996;5.180;2023-09-12T03:44:02;92.78;;;15.77;;
70455;SDS011;57916;51.996;5.180;2023-09-12T03:46:29;69.38;;;17.52;;
70455;SDS011;57916;51.996;5.180;2023-09-12T03:48:57;135.25;;;18.10;;
70455;SDS011;57916;51.996;5.180;2023-09-12T03:51:23;46.05;;;17.00;;
70455;SDS011;57916;51.996;5.180;2023-09-12T03:53:51;24.15;;;16.52;;
70455;SDS011;57916;51.996;5.180;2023-09-12T03:56:18;26.60;;;16.98;;
70455;SDS011;57916;51.996;5.180;2023-09-12T03:58:46;35.25;;;16.25;;
70455;SDS011;57916;51.996;5.180;2023-09-12T04:01:13;31.58;;;16.38;;
70455;SDS011;57916;51.996;5.180;2023-09-12T04:03:41;24.77;;;17.25;;
70455;SDS011;57916;51.996;5.180;2023-09-12T04:06:08;27.42;;;17.38;;
70455;SDS011;57916;51.996;5.180;2023-09-12T04:08:36;22.48;;;16.45;;
70455;SDS011;57916;51.996;5.180;2023-09-12T04:11:04;22.88;;;16.65;;
70455;SDS011;57916;51.996;5.180;2023-09-12T04:13:31;26.50;;;16.20;;
70455;SDS011;57916;51.996;5.180;2023-09-12T04:15:58;25.65;;;16.85;;
70455;SDS011;57916;51.996;5.180;2023-09-12T04:18:25;25.20;;;16.42;;
70455;SDS011;57916;51.996;5.180;2023-09-12T04:20:52;28.55;;;16.92;;
70455;SDS011;57916;51.996;5.180;2023-09-12T04:23:22;34.37;;;17.93;;
70455;SDS011;57916;51.996;5.180;2023-09-12T04:25:49;80.78;;;18.98;;
70455;SDS011;57916;51.996;5.180;2023-09-12T04:28:16;43.23;;;18.70;;
70455;SDS011;57916;51.996;5.180;2023-09-12T04:30:43;38.10;;;18.27;;
70455;SDS011;57916;51.996;5.180;2023-09-12T04:33:13;46.60;;;19.42;;
70455;SDS011;57916;51.996;5.180;2023-09-12T04:35:40;28.02;;;19.20;;
70455;SDS011;57916;51.996;5.180;2023-09-12T04:38:07;32.70;;;18.37;;
70455;SDS011;57916;51.996;5.180;2023-09-12T04:40:34;38.72;;;16.40;;
70455;SDS011;57916;51.996;5.180;2023-09-12T04:43:01;110.13;;;16.45;;
70455;SDS011;57916;51.996;5.180;2023-09-12T04:45:29;100.90;;;16.60;;
70455;SDS011;57916;51.996;5.180;2023-09-12T04:47:56;38.25;;;16.17;;
70455;SDS011;57916;51.996;5.180;2023-09-12T04:50:23;109.95;;;16.48;;
70455;SDS011;57916;51.996;5.180;2023-09-12T04:52:49;273.60;;;16.95;;
70455;SDS011;57916;51.996;5.180;2023-09-12T04:55:16;242.23;;;16.25;;
70455;SDS011;57916;51.996;5.180;2023-09-12T04:57:44;356.88;;;17.48;;
70455;SDS011;57916;51.996;5.180;2023-09-12T05:00:11;346.70;;;17.45;;
70455;SDS011;57916;51.996;5.180;2023-09-12T05:02:39;304.90;;;17.88;;
70455;SDS011;57916;51.996;5.180;2023-09-12T05:05:06;284.58;;;17.73;;
70455;SDS011;57916;51.996;5.180;2023-09-12T05:07:33;406.57;;;18.70;;
70455;SDS011;57916;51.996;5.180;2023-09-12T05:10:00;266.38;;;18.48;;
70455;SDS011;57916;51.996;5.180;2023-09-12T05:12:27;131.82;;;15.93;;
70455;SDS011;57916;51.996;5.180;2023-09-12T05:14:54;67.93;;;14.93;;
70455;SDS011;57916;51.996;5.180;2023-09-12T05:17:21;122.13;;;17.30;;
70455;SDS011;57916;51.996;5.180;2023-09-12T05:19:48;245.43;;;17.60;;
70455;SDS011;57916;51.996;5.180;2023-09-12T05:22:15;170.45;;;17.90;;
70455;SDS011;57916;51.996;5.180;2023-09-12T05:24:42;251.25;;;18.25;;
70455;SDS011;57916;51.996;5.180;2023-09-12T05:27:10;249.02;;;17.73;;
70455;SDS011;57916;51.996;5.180;2023-09-12T05:29:37;150.82;;;16.60;;
70455;SDS011;57916;51.996;5.180;2023-09-12T05:32:04;117.22;;;17.02;;
70455;SDS011;57916;51.996;5.180;2023-09-12T05:34:32;110.72;;;16.50;;
70455;SDS011;57916;51.996;5.180;2023-09-12T05:36:58;67.10;;;17.33;;
70455;SDS011;57916;51.996;5.180;2023-09-12T05:39:25;78.82;;;17.88;;
70455;SDS011;57916;51.996;5.180;2023-09-12T05:41:53;45.93;;;17.97;;
70455;SDS011;57916;51.996;5.180;2023-09-12T05:44:20;33.78;;;17.27;;
70455;SDS011;57916;51.996;5.180;2023-09-12T05:46:47;71.93;;;18.25;;
70455;SDS011;57916;51.996;5.180;2023-09-12T05:49:15;51.08;;;17.42;;
70455;SDS011;57916;51.996;5.180;2023-09-12T05:51:42;31.42;;;17.42;;
70455;SDS011;57916;51.996;5.180;2023-09-12T05:54:09;26.52;;;16.95;;
70455;SDS011;57916;51.996;5.180;2023-09-12T05:56:40;29.40;;;17.13;;
70455;SDS011;57916;51.996;5.180;2023-09-12T05:59:07;29.93;;;16.73;;
70455;SDS011;57916;51.996;5.180;2023-09-12T06:01:34;31.27;;;16.08;;
70455;SDS011;57916;51.996;5.180;2023-09-12T06:04:01;31.30;;;17.38;;
70455;SDS011;57916;51.996;5.180;2023-09-12T06:06:29;30.17;;;16.30;;
70455;SDS011;57916;51.996;5.180;2023-09-12T06:08:56;48.53;;;17.17;;
70455;SDS011;57916;51.996;5.180;2023-09-12T06:11:24;27.95;;;16.38;;
70455;SDS011;57916;51.996;5.180;2023-09-12T06:13:51;37.10;;;16.45;;
70455;SDS011;57916;51.996;5.180;2023-09-12T06:16:18;29.20;;;15.65;;
70455;SDS011;57916;51.996;5.180;2023-09-12T06:18:45;26.77;;;15.90;;
70455;SDS011;57916;51.996;5.180;2023-09-12T06:21:14;26.70;;;15.45;;
70455;SDS011;57916;51.996;5.180;2023-09-12T06:23:41;29.13;;;15.55;;
70455;SDS011;57916;51.996;5.180;2023-09-12T06:26:09;28.15;;;16.50;;
70455;SDS011;57916;51.996;5.180;2023-09-12T06:28:35;28.13;;;16.33;;
70455;SDS011;57916;51.996;5.180;2023-09-12T06:31:02;26.52;;;16.13;;
70455;SDS011;57916;51.996;5.180;2023-09-12T06:33:29;35.37;;;17.73;;
70455;SDS011;57916;51.996;5.180;2023-09-12T06:35:56;33.95;;;17.85;;
70455;SDS011;57916;51.996;5.180;2023-09-12T06:38:23;34.25;;;18.30;;
70455;SDS011;57916;51.996;5.180;2023-09-12T06:40:51;34.22;;;18.35;;
70455;SDS011;57916;51.996;5.180;2023-09-12T06:43:18;38.83;;;18.60;;
70455;SDS011;57916;51.996;5.180;2023-09-12T06:45:45;39.15;;;20.02;;
70455;SDS011;57916;51.996;5.180;2023-09-12T06:48:12;42.00;;;19.40;;
70455;SDS011;57916;51.996;5.180;2023-09-12T06:50:39;39.38;;;19.35;;
70455;SDS011;57916;51.996;5.180;2023-09-12T06:53:07;44.75;;;20.05;;
70455;SDS011;57916;51.996;5.180;2023-09-12T06:55:34;44.13;;;19.20;;
70455;SDS011;57916;51.996;5.180;2023-09-12T06:58:01;40.60;;;19.42;;
70455;SDS011;57916;51.996;5.180;2023-09-12T07:00:28;42.28;;;19.77;;
70455;SDS011;57916;51.996;5.180;2023-09-12T07:02:55;40.83;;;19.70;;
70455;SDS011;57916;51.996;5.180;2023-09-12T07:05:22;44.13;;;19.60;;
70455;SDS011;57916;51.996;5.180;2023-09-12T07:07:49;48.00;;;19.58;;
70455;SDS011;57916;51.996;5.180;2023-09-12T07:10:16;42.58;;;20.35;;
70455;SDS011;57916;51.996;5.180;2023-09-12T07:12:50;39.17;;;19.10;;
70455;SDS011;57916;51.996;5.180;2023-09-12T07:15:19;40.97;;;19.25;;
70455;SDS011;57916;51.996;5.180;2023-09-12T07:17:46;43.15;;;19.88;;
70455;SDS011;57916;51.996;5.180;2023-09-12T07:20:13;45.40;;;19.02;;
70455;SDS011;57916;51.996;5.180;2023-09-12T07:22:42;45.40;;;20.33;;
70455;SDS011;57916;51.996;5.180;2023-09-12T07:25:09;51.30;;;21.25;;
70455;SDS011;57916;51.996;5.180;2023-09-12T07:27:38;51.13;;;21.40;;
70455;SDS011;57916;51.996;5.180;2023-09-12T07:30:06;51.25;;;21.80;;
70455;SDS011;57916;51.996;5.180;2023-09-12T07:32:33;44.72;;;19.23;;
70455;SDS011;57916;51.996;5.180;2023-09-12T07:35:01;42.15;;;19.63;;
70455;SDS011;57916;51.996;5.180;2023-09-12T07:37:28;42.67;;;19.92;;
70455;SDS011;57916;51.996;5.180;2023-09-12T07:39:55;44.95;;;20.70;;
70455;SDS011;57916;51.996;5.180;2023-09-12T07:42:22;47.10;;;20.42;;
70455;SDS011;57916;51.996;5.180;2023-09-12T07:44:50;48.28;;;21.48;;
70455;SDS011;57916;51.996;5.180;2023-09-12T07:47:17;45.67;;;21.55;;
70455;SDS011;57916;51.996;5.180;2023-09-12T07:49:45;44.58;;;20.95;;
70455;SDS011;57916;51.996;5.180;2023-09-12T07:52:12;43.97;;;21.23;;
70455;SDS011;57916;51.996;5.180;2023-09-12T07:54:39;48.97;;;21.95;;
70455;SDS011;57916;51.996;5.180;2023-09-12T07:57:05;46.60;;;21.27;;
70455;SDS011;57916;51.996;5.180;2023-09-12T07:59:33;55.38;;;23.67;;
70455;SDS011;57916;51.996;5.180;2023-09-12T08:02:00;57.25;;;24.90;;
70455;SDS011;57916;51.996;5.180;2023-09-12T08:04:28;55.35;;;23.98;;
70455;SDS011;57916;51.996;5.180;2023-09-12T08:06:56;61.90;;;25.02;;
70455;SDS011;57916;51.996;5.180;2023-09-12T08:09:46;58.28;;;25.20;;
70455;SDS011;57916;51.996;5.180;2023-09-12T08:12:15;58.90;;;25.20;;
70455;SDS011;57916;51.996;5.180;2023-09-12T08:14:43;58.43;;;25.03;;
70455;SDS011;57916;51.996;5.180;2023-09-12T08:17:11;62.08;;;25.83;;
70455;SDS011;57916;51.996;5.180;2023-09-12T08:19:39;63.13;;;25.05;;
70455;SDS011;57916;51.996;5.180;2023-09-12T08:22:07;60.70;;;26.38;;
70455;SDS011;57916;51.996;5.180;2023-09-12T08:24:35;65.38;;;26.05;;
70455;SDS011;57916;51.996;5.180;2023-09-12T08:27:03;59.17;;;26.88;;
70455;SDS011;57916;51.996;5.180;2023-09-12T08:29:31;65.50;;;28.33;;
70455;SDS011;57916;51.996;5.180;2023-09-12T08:31:59;63.28;;;26.80;;
70455;SDS011;57916;51.996;5.180;2023-09-12T08:34:27;66.57;;;27.02;;
70455;SDS011;57916;51.996;5.180;2023-09-12T08:36:54;71.47;;;28.13;;
70455;SDS011;57916;51.996;5.180;2023-09-12T08:39:24;74.43;;;29.17;;
70455;SDS011;57916;51.996;5.180;2023-09-12T08:41:53;68.28;;;28.85;;
70455;SDS011;57916;51.996;5.180;2023-09-12T08:44:21;67.63;;;27.33;;
70455;SDS011;57916;51.996;5.180;2023-09-12T08:46:48;61.88;;;26.38;;
70455;SDS011;57916;51.996;5.180;2023-09-12T08:49:15;65.13;;;27.42;;
70455;SDS011;57916;51.996;5.180;2023-09-12T08:51:43;58.65;;;26.60;;
70455;SDS011;57916;51.996;5.180;2023-09-12T08:54:11;64.43;;;27.02;;
70455;SDS011;57916;51.996;5.180;2023-09-12T08:56:40;62.63;;;27.33;;
70455;SDS011;57916;51.996;5.180;2023-09-12T08:59:08;60.72;;;27.20;;
70455;SDS011;57916;51.996;5.180;2023-09-12T09:01:37;58.42;;;26.55;;
70455;SDS011;57916;51.996;5.180;2023-09-12T09:04:06;58.45;;;26.38;;
70455;SDS011;57916;51.996;5.180;2023-09-12T09:06:33;54.25;;;25.63;;
70455;SDS011;57916;51.996;5.180;2023-09-12T09:09:04;64.03;;;27.98;;
70455;SDS011;57916;51.996;5.180;2023-09-12T09:11:34;62.03;;;26.63;;
70455;SDS011;57916;51.996;5.180;2023-09-12T09:14:02;64.50;;;27.38;;
70455;SDS011;57916;51.996;5.180;2023-09-12T09:16:29;59.67;;;25.90;;
70455;SDS011;57916;51.996;5.180;2023-09-12T09:21:29;56.58;;;25.48;;
70455;SDS011;57916;51.996;5.180;2023-09-12T09:23:59;56.30;;;24.60;;
70455;SDS011;57916;51.996;5.180;2023-09-12T09:26:42;54.63;;;24.92;;
70455;SDS011;57916;51.996;5.180;2023-09-12T09:29:10;59.08;;;25.33;;
70455;SDS011;57916;51.996;5.180;2023-09-12T09:31:40;57.95;;;25.45;;
70455;SDS011;57916;51.996;5.180;2023-09-12T09:34:12;51.57;;;25.07;;
70455;SDS011;57916;51.996;5.180;2023-09-12T09:36:52;53.20;;;24.85;;
70455;SDS011;57916;51.996;5.180;2023-09-12T09:39:22;49.30;;;25.00;;
70455;SDS011;57916;51.996;5.180;2023-09-12T09:41:52;46.08;;;23.50;;
70455;SDS011;57916;51.996;5.180;2023-09-12T09:44:23;47.28;;;23.27;;
70455;SDS011;57916;51.996;5.180;2023-09-12T09:46:58;45.97;;;22.33;;
70455;SDS011;57916;51.996;5.180;2023-09-12T09:49:32;108.20;;;26.63;;
70455;SDS011;57916;51.996;5.180;2023-09-12T09:52:03;43.15;;;21.58;;
70455;SDS011;57916;51.996;5.180;2023-09-12T09:54:30;47.28;;;22.58;;
70455;SDS011;57916;51.996;5.180;2023-09-12T09:56:57;46.42;;;22.45;;
70455;SDS011;57916;51.996;5.180;2023-09-12T09:59:25;48.97;;;23.50;;
70455;SDS011;57916;51.996;5.180;2023-09-12T10:01:55;53.25;;;23.10;;
70455;SDS011;57916;51.996;5.180;2023-09-12T10:04:24;47.95;;;22.70;;
70455;SDS011;57916;51.996;5.180;2023-09-12T10:06:55;46.70;;;23.27;;
70455;SDS011;57916;51.996;5.180;2023-09-12T10:09:23;49.58;;;23.80;;
70455;SDS011;57916;51.996;5.180;2023-09-12T10:11:52;45.15;;;23.58;;
70455;SDS011;57916;51.996;5.180;2023-09-12T10:14:22;47.75;;;23.83;;
70455;SDS011;57916;51.996;5.180;2023-09-12T10:16:50;45.40;;;23.17;;
70455;SDS011;57916;51.996;5.180;2023-09-12T10:19:19;43.13;;;22.35;;
70455;SDS011;57916;51.996;5.180;2023-09-12T10:25:02;46.95;;;23.15;;
70455;SDS011;57916;51.996;5.180;2023-09-12T10:27:29;42.90;;;21.88;;
70455;SDS011;57916;51.996;5.180;2023-09-12T10:29:58;37.88;;;20.95;;
70455;SDS011;57916;51.996;5.180;2023-09-12T10:32:26;41.38;;;20.92;;
70455;SDS011;57916;51.996;5.180;2023-09-12T10:34:58;35.72;;;20.10;;
70455;SDS011;57916;51.996;5.180;2023-09-12T10:37:26;38.75;;;20.15;;
70455;SDS011;57916;51.996;5.180;2023-09-12T10:39:55;36.60;;;19.02;;
70455;SDS011;57916;51.996;5.180;2023-09-12T10:42:24;42.77;;;19.50;;
70455;SDS011;57916;51.996;5.180;2023-09-12T10:44:52;34.40;;;18.75;;
70455;SDS011;57916;51.996;5.180;2023-09-12T10:47:21;37.28;;;19.95;;
70455;SDS011;57916;51.996;5.180;2023-09-12T10:49:49;35.87;;;20.43;;
70455;SDS011;57916;51.996;5.180;2023-09-12T10:52:26;36.50;;;19.97;;
70455;SDS011;57916;51.996;5.180;2023-09-12T10:54:53;34.85;;;19.08;;
70455;SDS011;57916;51.996;5.180;2023-09-12T10:57:21;36.08;;;19.50;;
70455;SDS011;57916;51.996;5.180;2023-09-12T11:02:37;34.28;;;19.92;;
70455;SDS011;57916;51.996;5.180;2023-09-12T11:07:58;38.77;;;20.60;;
70455;SDS011;57916;51.996;5.180;2023-09-12T11:10:26;38.53;;;20.97;;
70455;SDS011;57916;51.996;5.180;2023-09-12T11:12:54;36.83;;;20.45;;
70455;SDS011;57916;51.996;5.180;2023-09-12T11:15:24;41.72;;;20.80;;
70455;SDS011;57916;51.996;5.180;2023-09-12T11:18:02;38.73;;;20.57;;
70455;SDS011;57916;51.996;5.180;2023-09-12T11:23:39;34.37;;;19.90;;
70455;SDS011;57916;51.996;5.180;2023-09-12T11:26:07;38.50;;;20.83;;
70455;SDS011;57916;51.996;5.180;2023-09-12T11:28:37;40.07;;;20.97;;
70455;SDS011;57916;51.996;5.180;2023-09-12T11:31:05;37.97;;;20.48;;
70455;SDS011;57916;51.996;5.180;2023-09-12T11:33:33;39.38;;;19.95;;
70455;SDS011;57916;51.996;5.180;2023-09-12T11:36:00;36.97;;;19.75;;
70455;SDS011;57916;51.996;5.180;2023-09-12T11:38:30;38.13;;;20.25;;
70455;SDS011;57916;51.996;5.180;2023-09-12T11:40:58;43.45;;;20.98;;
70455;SDS011;57916;51.996;5.180;2023-09-12T11:43:27;38.13;;;20.38;;
70455;SDS011;57916;51.996;5.180;2023-09-12T11:45:55;38.90;;;19.40;;
70455;SDS011;57916;51.996;5.180;2023-09-12T11:48:23;37.80;;;19.40;;
70455;SDS011;57916;51.996;5.180;2023-09-12T11:50:51;36.42;;;19.35;;
70455;SDS011;57916;51.996;5.180;2023-09-12T11:53:23;35.70;;;20.25;;
70455;SDS011;57916;51.996;5.180;2023-09-12T11:55:53;35.47;;;19.67;;
70455;SDS011;57916;51.996;5.180;2023-09-12T11:58:23;32.33;;;19.27;;
70455;SDS011;57916;51.996;5.180;2023-09-12T12:00:52;36.50;;;20.60;;
70455;SDS011;57916;51.996;5.180;2023-09-12T12:03:21;34.35;;;19.50;;
70455;SDS011;57916;51.996;5.180;2023-09-12T12:05:50;38.00;;;19.33;;
70455;SDS011;57916;51.996;5.180;2023-09-12T12:08:18;34.10;;;19.90;;
70455;SDS011;57916;51.996;5.180;2023-09-12T12:10:51;36.95;;;20.35;;
70455;SDS011;57916;51.996;5.180;2023-09-12T12:13:20;34.80;;;19.40;;
70455;SDS011;57916;51.996;5.180;2023-09-12T12:15:48;36.95;;;20.48;;
70455;SDS011;57916;51.996;5.180;2023-09-12T12:18:15;33.45;;;19.80;;
70455;SDS011;57916;51.996;5.180;2023-09-12T12:20:42;34.77;;;19.60;;
70455;SDS011;57916;51.996;5.180;2023-09-12T12:23:09;35.33;;;18.92;;
70455;SDS011;57916;51.996;5.180;2023-09-12T12:25:37;31.95;;;17.42;;
70455;SDS011;57916;51.996;5.180;2023-09-12T12:28:04;31.98;;;16.65;;
70455;SDS011;57916;51.996;5.180;2023-09-12T12:30:32;25.88;;;14.63;;
70455;SDS011;57916;51.996;5.180;2023-09-12T12:33:07;25.67;;;14.70;;
70455;SDS011;57916;51.996;5.180;2023-09-12T12:36:04;27.42;;;15.23;;
70455;SDS011;57916;51.996;5.180;2023-09-12T12:38:37;26.73;;;14.88;;
70455;SDS011;57916;51.996;5.180;2023-09-12T12:41:17;29.95;;;14.80;;
70455;SDS011;57916;51.996;5.180;2023-09-12T12:44:11;28.13;;;14.43;;
70455;SDS011;57916;51.996;5.180;2023-09-12T12:46:50;23.83;;;13.70;;
70455;SDS011;57916;51.996;5.180;2023-09-12T12:49:20;24.30;;;13.13;;
70455;SDS011;57916;51.996;5.180;2023-09-12T12:51:49;23.55;;;12.63;;
70455;SDS011;57916;51.996;5.180;2023-09-12T12:54:16;23.75;;;13.30;;
70455;SDS011;57916;51.996;5.180;2023-09-12T12:56:43;24.23;;;11.50;;
70455;SDS011;57916;51.996;5.180;2023-09-12T12:59:13;19.35;;;10.73;;
70455;SDS011;57916;51.996;5.180;2023-09-12T13:01:43;27.13;;;13.93;;
70455;SDS011;57916;51.996;5.180;2023-09-12T13:04:10;30.63;;;13.43;;
70455;SDS011;57916;51.996;5.180;2023-09-12T13:06:38;26.40;;;14.63;;
70455;SDS011;57916;51.996;5.180;2023-09-12T13:09:06;28.53;;;13.43;;
70455;SDS011;57916;51.996;5.180;2023-09-12T13:11:34;23.38;;;12.88;;
70455;SDS011;57916;51.996;5.180;2023-09-12T13:14:02;25.63;;;13.15;;
70455;SDS011;57916;51.996;5.180;2023-09-12T13:16:37;23.55;;;12.75;;
70455;SDS011;57916;51.996;5.180;2023-09-12T13:19:06;25.02;;;12.50;;
70455;SDS011;57916;51.996;5.180;2023-09-12T13:21:33;21.85;;;11.20;;
70455;SDS011;57916;51.996;5.180;2023-09-12T13:24:00;18.52;;;9.82;;
70455;SDS011;57916;51.996;5.180;2023-09-12T13:26:28;17.92;;;10.85;;
70455;SDS011;57916;51.996;5.180;2023-09-12T13:28:58;20.80;;;10.80;;
70455;SDS011;57916;51.996;5.180;2023-09-12T13:31:25;17.75;;;9.98;;
70455;SDS011;57916;51.996;5.180;2023-09-12T13:33:53;17.47;;;8.83;;
70455;SDS011;57916;51.996;5.180;2023-09-12T13:36:20;19.33;;;11.10;;
70455;SDS011;57916;51.996;5.180;2023-09-12T13:38:47;20.13;;;10.80;;
70455;SDS011;57916;51.996;5.180;2023-09-12T13:41:15;20.77;;;11.60;;
70455;SDS011;57916;51.996;5.180;2023-09-12T13:43:42;25.65;;;13.27;;
70455;SDS011;57916;51.996;5.180;2023-09-12T13:46:12;23.48;;;12.98;;
70455;SDS011;57916;51.996;5.180;2023-09-12T13:48:39;22.52;;;11.85;;
70455;SDS011;57916;51.996;5.180;2023-09-12T13:51:07;18.33;;;11.45;;
70455;SDS011;57916;51.996;5.180;2023-09-12T13:53:34;19.50;;;11.40;;
70455;SDS011;57916;51.996;5.180;2023-09-12T13:56:01;21.02;;;11.23;;
70455;SDS011;57916;51.996;5.180;2023-09-12T13:58:28;19.85;;;11.35;;
70455;SDS011;57916;51.996;5.180;2023-09-12T14:01:08;25.63;;;12.70;;
70455;SDS011;57916;51.996;5.180;2023-09-12T14:03:37;21.40;;;12.68;;
70455;SDS011;57916;51.996;5.180;2023-09-12T14:06:05;22.15;;;12.60;;
70455;SDS011;57916;51.996;5.180;2023-09-12T14:08:32;21.02;;;12.52;;
70455;SDS011;57916;51.996;5.180;2023-09-12T14:10:59;21.35;;;12.25;;
70455;SDS011;57916;51.996;5.180;2023-09-12T14:13:26;19.50;;;12.00;;
70455;SDS011;57916;51.996;5.180;2023-09-12T14:15:54;20.90;;;12.40;;
70455;SDS011;57916;51.996;5.180;2023-09-12T14:18:22;22.08;;;12.38;;
70455;SDS011;57916;51.996;5.180;2023-09-12T14:20:52;22.20;;;12.73;;
70455;SDS011;57916;51.996;5.180;2023-09-12T14:23:20;21.77;;;13.10;;
70455;SDS011;57916;51.996;5.180;2023-09-12T14:25:48;21.52;;;12.75;;
70455;SDS011;57916;51.996;5.180;2023-09-12T14:28:15;23.40;;;12.70;;
70455;SDS011;57916;51.996;5.180;2023-09-12T14:30:44;23.80;;;13.48;;
70455;SDS011;57916;51.996;5.180;2023-09-12T14:33:12;21.20;;;12.60;;
70455;SDS011;57916;51.996;5.180;2023-09-12T14:35:43;21.03;;;12.20;;
70455;SDS011;57916;51.996;5.180;2023-09-12T14:38:11;25.15;;;13.27;;
70455;SDS011;57916;51.996;5.180;2023-09-12T14:40:38;23.00;;;12.25;;
70455;SDS011;57916;51.996;5.180;2023-09-12T14:43:10;23.15;;;13.02;;